sensor_id;sensor_type;location;lat;lon;timestamp;P1;durP1;ratioP1;P2;durP2;ratioP2
50543;SDS011;41176;44.032;20.900;2022-09-13T00:02:03;1.48;;;0.55;;
50543;SDS011;41176;44.032;20.900;2022-09-13T00:04:29;1.63;;;0.82;;
50543;SDS011;41176;44.032;20.900;2022-09-13T00:06:54;1.15;;;0.45;;
50543;SDS011;41176;44.032;20.900;2022-09-13T00:09:20;1.85;;;0.80;;
50543;SDS011;41176;44.032;20.900;2022-09-13T00:11:46;1.52;;;0.57;;
50543;SDS011;41176;44.032;20.900;2022-09-13T00:14:12;2.03;;;0.90;;
50543;SDS011;41176;44.032;20.900;2022-09-13T00:16:37;2.00;;;0.85;;
50543;SDS011;41176;44.032;20.900;2022-09-13T00:19:03;1.48;;;0.47;;
50543;SDS011;41176;44.032;20.900;2022-09-13T00:21:29;1.40;;;0.60;;
50543;SDS011;41176;44.032;20.900;2022-09-13T00:23:55;1.55;;;0.65;;
50543;SDS011;41176;44.032;20.900;2022-09-13T00:26:22;0.90;;;0.68;;
50543;SDS011;41176;44.032;20.900;2022-09-13T00:28:51;1.63;;;0.85;;
50543;SDS011;41176;44.032;20.900;2022-09-13T00:31:18;1.58;;;0.70;;
50543;SDS011;41176;44.032;20.900;2022-09-13T00:33:45;2.75;;;0.80;;
50543;SDS011;41176;44.032;20.900;2022-09-13T00:36:12;0.98;;;0.50;;
50543;SDS011;41176;44.032;20.900;2022-09-13T00:38:39;1.38;;;0.68;;
50543;SDS011;41176;44.032;20.900;2022-09-13T00:41:06;1.45;;;0.52;;
50543;SDS011;41176;44.032;20.900;2022-09-13T00:46:26;2.17;;;0.63;;
50543;SDS011;41176;44.032;20.900;2022-09-13T00:49:13;2.10;;;0.80;;
50543;SDS011;41176;44.032;20.900;2022-09-13T00:51:44;2.15;;;0.70;;
50543;SDS011;41176;44.032;20.900;2022-09-13T00:54:18;1.80;;;0.50;;
50543;SDS011;41176;44.032;20.900;2022-09-13T00:56:49;1.17;;;0.50;;
50543;SDS011;41176;44.032;20.900;2022-09-13T00:59:20;1.30;;;0.45;;
50543;SDS011;41176;44.032;20.900;2022-09-13T01:01:52;1.63;;;0.63;;
50543;SDS011;41176;44.032;20.900;2022-09-13T01:04:21;1.42;;;0.57;;
50543;SDS011;41176;44.032;20.900;2022-09-13T01:06:51;1.05;;;0.60;;
50543;SDS011;41176;44.032;20.900;2022-09-13T01:09:20;2.75;;;1.00;;
50543;SDS011;41176;44.032;20.900;2022-09-13T01:11:47;2.17;;;0.73;;
50543;SDS011;41176;44.032;20.900;2022-09-13T01:14:19;1.17;;;0.70;;
50543;SDS011;41176;44.032;20.900;2022-09-13T01:16:47;1.10;;;0.63;;
50543;SDS011;41176;44.032;20.900;2022-09-13T01:19:14;1.58;;;0.77;;
50543;SDS011;41176;44.032;20.900;2022-09-13T01:24:33;1.40;;;0.60;;
50543;SDS011;41176;44.032;20.900;2022-09-13T01:48:09;1.05;;;0.45;;
50543;SDS011;41176;44.032;20.900;2022-09-13T02:05:21;1.35;;;0.60;;
50543;SDS011;41176;44.032;20.900;2022-09-13T02:07:56;1.30;;;0.43;;
50543;SDS011;41176;44.032;20.900;2022-09-13T02:10:36;1.52;;;0.85;;
50543;SDS011;41176;44.032;20.900;2022-09-13T02:13:07;1.40;;;0.68;;
50543;SDS011;41176;44.032;20.900;2022-09-13T02:15:39;1.60;;;0.68;;
50543;SDS011;41176;44.032;20.900;2022-09-13T02:18:11;2.10;;;0.90;;
50543;SDS011;41176;44.032;20.900;2022-09-13T02:20:44;0.65;;;0.30;;
50543;SDS011;41176;44.032;20.900;2022-09-13T02:23:15;0.75;;;0.40;;
50543;SDS011;41176;44.032;20.900;2022-09-13T02:26:05;0.93;;;0.40;;
50543;SDS011;41176;44.032;20.900;2022-09-13T02:28:35;0.85;;;0.43;;
50543;SDS011;41176;44.032;20.900;2022-09-13T02:31:06;0.98;;;0.30;;
50543;SDS011;41176;44.032;20.900;2022-09-13T02:33:43;0.90;;;0.40;;
50543;SDS011;41176;44.032;20.900;2022-09-13T02:36:14;0.75;;;0.40;;
50543;SDS011;41176;44.032;20.900;2022-09-13T02:38:46;1.88;;;0.40;;
50543;SDS011;41176;44.032;20.900;2022-09-13T02:41:40;0.80;;;0.47;;
50543;SDS011;41176;44.032;20.900;2022-09-13T02:44:37;1.80;;;0.70;;
50543;SDS011;41176;44.032;20.900;2022-09-13T02:47:15;1.33;;;0.60;;
50543;SDS011;41176;44.032;20.900;2022-09-13T02:55:27;0.95;;;0.47;;
50543;SDS011;41176;44.032;20.900;2022-09-13T03:00:43;0.80;;;0.30;;
50543;SDS011;41176;44.032;20.900;2022-09-13T03:03:11;1.08;;;0.50;;
50543;SDS011;41176;44.032;20.900;2022-09-13T03:05:38;2.30;;;0.75;;
50543;SDS011;41176;44.032;20.900;2022-09-13T03:08:04;1.27;;;0.50;;
50543;SDS011;41176;44.032;20.900;2022-09-13T03:10:38;1.70;;;0.63;;
50543;SDS011;41176;44.032;20.900;2022-09-13T03:16:36;0.50;;;0.25;;
50543;SDS011;41176;44.032;20.900;2022-09-13T03:29:30;0.73;;;0.30;;
50543;SDS011;41176;44.032;20.900;2022-09-13T03:45:44;0.98;;;0.50;;
50543;SDS011;41176;44.032;20.900;2022-09-13T03:48:13;1.25;;;0.68;;
50543;SDS011;41176;44.032;20.900;2022-09-13T03:50:39;2.00;;;0.80;;
50543;SDS011;41176;44.032;20.900;2022-09-13T03:53:08;1.75;;;0.68;;
50543;SDS011;41176;44.032;20.900;2022-09-13T03:55:39;1.17;;;0.60;;
50543;SDS011;41176;44.032;20.900;2022-09-13T03:58:11;1.45;;;0.70;;
50543;SDS011;41176;44.032;20.900;2022-09-13T04:00:38;2.30;;;0.73;;
50543;SDS011;41176;44.032;20.900;2022-09-13T04:03:05;1.70;;;0.95;;
50543;SDS011;41176;44.032;20.900;2022-09-13T04:05:31;1.27;;;0.73;;
50543;SDS011;41176;44.032;20.900;2022-09-13T04:07:58;1.38;;;0.85;;
50543;SDS011;41176;44.032;20.900;2022-09-13T04:10:26;1.02;;;0.57;;
50543;SDS011;41176;44.032;20.900;2022-09-13T04:12:56;1.55;;;0.47;;
50543;SDS011;41176;44.032;20.900;2022-09-13T04:15:23;0.90;;;0.60;;
50543;SDS011;41176;44.032;20.900;2022-09-13T04:17:49;1.38;;;0.40;;
50543;SDS011;41176;44.032;20.900;2022-09-13T04:20:15;1.95;;;0.93;;
50543;SDS011;41176;44.032;20.900;2022-09-13T04:22:41;2.55;;;0.95;;
50543;SDS011;41176;44.032;20.900;2022-09-13T04:25:06;1.08;;;0.60;;
50543;SDS011;41176;44.032;20.900;2022-09-13T04:27:33;1.60;;;0.70;;
50543;SDS011;41176;44.032;20.900;2022-09-13T04:30:00;0.93;;;0.40;;
50543;SDS011;41176;44.032;20.900;2022-09-13T04:32:26;1.58;;;0.60;;
50543;SDS011;41176;44.032;20.900;2022-09-13T04:34:53;0.90;;;0.43;;
50543;SDS011;41176;44.032;20.900;2022-09-13T04:37:19;1.83;;;0.75;;
50543;SDS011;41176;44.032;20.900;2022-09-13T04:39:45;2.47;;;0.65;;
50543;SDS011;41176;44.032;20.900;2022-09-13T04:42:11;1.30;;;0.55;;
50543;SDS011;41176;44.032;20.900;2022-09-13T04:44:37;1.98;;;0.65;;
50543;SDS011;41176;44.032;20.900;2022-09-13T04:47:03;1.70;;;0.90;;
50543;SDS011;41176;44.032;20.900;2022-09-13T04:49:30;1.25;;;0.50;;
50543;SDS011;41176;44.032;20.900;2022-09-13T04:51:56;1.30;;;0.60;;
50543;SDS011;41176;44.032;20.900;2022-09-13T04:54:22;1.52;;;0.75;;
50543;SDS011;41176;44.032;20.900;2022-09-13T04:56:47;3.08;;;0.95;;
50543;SDS011;41176;44.032;20.900;2022-09-13T04:59:13;1.30;;;0.60;;
50543;SDS011;41176;44.032;20.900;2022-09-13T05:01:39;1.52;;;0.70;;
50543;SDS011;41176;44.032;20.900;2022-09-13T05:04:06;2.60;;;0.88;;
50543;SDS011;41176;44.032;20.900;2022-09-13T05:06:32;1.45;;;0.90;;
50543;SDS011;41176;44.032;20.900;2022-09-13T05:08:58;2.33;;;1.20;;
50543;SDS011;41176;44.032;20.900;2022-09-13T05:11:25;1.83;;;0.65;;
50543;SDS011;41176;44.032;20.900;2022-09-13T05:13:52;2.05;;;0.57;;
50543;SDS011;41176;44.032;20.900;2022-09-13T05:16:21;1.42;;;0.70;;
50543;SDS011;41176;44.032;20.900;2022-09-13T05:18:48;1.75;;;1.05;;
50543;SDS011;41176;44.032;20.900;2022-09-13T05:21:14;0.68;;;0.40;;
50543;SDS011;41176;44.032;20.900;2022-09-13T05:23:40;1.98;;;0.68;;
50543;SDS011;41176;44.032;20.900;2022-09-13T05:26:05;1.85;;;0.88;;
50543;SDS011;41176;44.032;20.900;2022-09-13T05:28:33;1.25;;;0.60;;
50543;SDS011;41176;44.032;20.900;2022-09-13T05:31:04;1.85;;;0.80;;
50543;SDS011;41176;44.032;20.900;2022-09-13T05:33:36;1.65;;;0.52;;
50543;SDS011;41176;44.032;20.900;2022-09-13T05:36:06;1.25;;;0.60;;
50543;SDS011;41176;44.032;20.900;2022-09-13T05:38:32;0.60;;;0.30;;
50543;SDS011;41176;44.032;20.900;2022-09-13T05:40:59;2.72;;;0.80;;
50543;SDS011;41176;44.032;20.900;2022-09-13T05:43:27;3.13;;;0.98;;
50543;SDS011;41176;44.032;20.900;2022-09-13T05:46:08;2.03;;;0.70;;
50543;SDS011;41176;44.032;20.900;2022-09-13T05:48:39;1.58;;;0.93;;
50543;SDS011;41176;44.032;20.900;2022-09-13T05:51:24;1.85;;;0.70;;
50543;SDS011;41176;44.032;20.900;2022-09-13T05:53:51;2.20;;;0.88;;
50543;SDS011;41176;44.032;20.900;2022-09-13T05:56:22;2.08;;;0.85;;
50543;SDS011;41176;44.032;20.900;2022-09-13T05:58:50;1.40;;;0.68;;
50543;SDS011;41176;44.032;20.900;2022-09-13T06:01:17;1.67;;;0.70;;
50543;SDS011;41176;44.032;20.900;2022-09-13T06:03:48;1.40;;;0.65;;
50543;SDS011;41176;44.032;20.900;2022-09-13T06:06:15;2.40;;;1.17;;
50543;SDS011;41176;44.032;20.900;2022-09-13T06:08:41;1.50;;;0.80;;
50543;SDS011;41176;44.032;20.900;2022-09-13T06:11:08;2.60;;;0.70;;
50543;SDS011;41176;44.032;20.900;2022-09-13T06:13:35;1.75;;;0.77;;
50543;SDS011;41176;44.032;20.900;2022-09-13T06:16:03;2.38;;;0.93;;
50543;SDS011;41176;44.032;20.900;2022-09-13T06:18:31;1.30;;;0.70;;
50543;SDS011;41176;44.032;20.900;2022-09-13T06:21:00;4.05;;;1.05;;
50543;SDS011;41176;44.032;20.900;2022-09-13T06:23:33;1.30;;;0.73;;
50543;SDS011;41176;44.032;20.900;2022-09-13T06:28:29;2.00;;;0.68;;
50543;SDS011;41176;44.032;20.900;2022-09-13T06:31:02;2.15;;;0.75;;
50543;SDS011;41176;44.032;20.900;2022-09-13T06:33:28;1.20;;;0.67;;
50543;SDS011;41176;44.032;20.900;2022-09-13T06:35:54;2.25;;;0.75;;
50543;SDS011;41176;44.032;20.900;2022-09-13T06:38:24;1.88;;;0.90;;
50543;SDS011;41176;44.032;20.900;2022-09-13T06:40:58;2.13;;;0.90;;
50543;SDS011;41176;44.032;20.900;2022-09-13T06:43:28;1.27;;;0.52;;
50543;SDS011;41176;44.032;20.900;2022-09-13T06:46:28;1.90;;;0.80;;
50543;SDS011;41176;44.032;20.900;2022-09-13T06:48:47;1.95;;;0.95;;
50543;SDS011;41176;44.032;20.900;2022-09-13T06:51:17;1.83;;;0.68;;
50543;SDS011;41176;44.032;20.900;2022-09-13T06:53:45;1.38;;;0.77;;
50543;SDS011;41176;44.032;20.900;2022-09-13T06:56:17;1.95;;;0.80;;
50543;SDS011;41176;44.032;20.900;2022-09-13T06:58:45;1.38;;;0.60;;
50543;SDS011;41176;44.032;20.900;2022-09-13T07:01:19;2.20;;;0.80;;
50543;SDS011;41176;44.032;20.900;2022-09-13T07:03:51;1.80;;;0.77;;
50543;SDS011;41176;44.032;20.900;2022-09-13T07:06:19;1.42;;;0.70;;
50543;SDS011;41176;44.032;20.900;2022-09-13T07:08:52;1.50;;;0.60;;
50543;SDS011;41176;44.032;20.900;2022-09-13T07:11:24;1.85;;;0.95;;
50543;SDS011;41176;44.032;20.900;2022-09-13T07:14:11;1.60;;;0.80;;
50543;SDS011;41176;44.032;20.900;2022-09-13T07:16:55;2.53;;;0.85;;
50543;SDS011;41176;44.032;20.900;2022-09-13T07:19:25;1.13;;;0.52;;
50543;SDS011;41176;44.032;20.900;2022-09-13T07:21:53;1.15;;;0.55;;
50543;SDS011;41176;44.032;20.900;2022-09-13T07:24:21;1.50;;;0.63;;
50543;SDS011;41176;44.032;20.900;2022-09-13T07:26:48;1.90;;;0.82;;
50543;SDS011;41176;44.032;20.900;2022-09-13T07:29:15;2.05;;;0.85;;
50543;SDS011;41176;44.032;20.900;2022-09-13T07:31:47;1.25;;;0.52;;
50543;SDS011;41176;44.032;20.900;2022-09-13T07:34:18;1.33;;;0.50;;
50543;SDS011;41176;44.032;20.900;2022-09-13T07:36:45;1.00;;;0.40;;
50543;SDS011;41176;44.032;20.900;2022-09-13T07:39:12;1.50;;;0.70;;
50543;SDS011;41176;44.032;20.900;2022-09-13T07:41:40;2.00;;;0.50;;
50543;SDS011;41176;44.032;20.900;2022-09-13T07:44:06;1.02;;;0.50;;
50543;SDS011;41176;44.032;20.900;2022-09-13T07:46:34;2.13;;;0.75;;
50543;SDS011;41176;44.032;20.900;2022-09-13T07:49:04;0.85;;;0.40;;
50543;SDS011;41176;44.032;20.900;2022-09-13T07:51:31;1.42;;;0.60;;
50543;SDS011;41176;44.032;20.900;2022-09-13T07:54:00;1.02;;;0.60;;
50543;SDS011;41176;44.032;20.900;2022-09-13T07:56:29;1.40;;;0.60;;
50543;SDS011;41176;44.032;20.900;2022-09-13T07:58:57;1.75;;;0.60;;
50543;SDS011;41176;44.032;20.900;2022-09-13T08:01:36;1.15;;;0.60;;
50543;SDS011;41176;44.032;20.900;2022-09-13T08:04:04;1.20;;;0.40;;
50543;SDS011;41176;44.032;20.900;2022-09-13T08:06:34;1.38;;;0.50;;
50543;SDS011;41176;44.032;20.900;2022-09-13T08:09:01;1.38;;;0.60;;
50543;SDS011;41176;44.032;20.900;2022-09-13T08:14:21;1.45;;;0.40;;
50543;SDS011;41176;44.032;20.900;2022-09-13T08:23:41;1.27;;;0.43;;
50543;SDS011;41176;44.032;20.900;2022-09-13T08:29:46;1.58;;;0.50;;
50543;SDS011;41176;44.032;20.900;2022-09-13T08:32:48;1.05;;;0.50;;
50543;SDS011;41176;44.032;20.900;2022-09-13T08:35:15;0.95;;;0.43;;
50543;SDS011;41176;44.032;20.900;2022-09-13T08:37:43;0.93;;;0.30;;
50543;SDS011;41176;44.032;20.900;2022-09-13T08:43:36;1.30;;;0.40;;
50543;SDS011;41176;44.032;20.900;2022-09-13T08:46:24;1.17;;;0.45;;
50543;SDS011;41176;44.032;20.900;2022-09-13T08:58:17;1.15;;;0.45;;
50543;SDS011;41176;44.032;20.900;2022-09-13T09:00:59;1.07;;;0.47;;
50543;SDS011;41176;44.032;20.900;2022-09-13T09:06:14;1.13;;;0.52;;
50543;SDS011;41176;44.032;20.900;2022-09-13T09:08:48;1.15;;;0.40;;
50543;SDS011;41176;44.032;20.900;2022-09-13T09:11:25;0.88;;;0.40;;
50543;SDS011;41176;44.032;20.900;2022-09-13T09:14:16;1.65;;;0.50;;
50543;SDS011;41176;44.032;20.900;2022-09-13T09:16:54;0.90;;;0.40;;
50543;SDS011;41176;44.032;20.900;2022-09-13T09:22:18;0.77;;;0.40;;
50543;SDS011;41176;44.032;20.900;2022-09-13T09:24:55;0.75;;;0.32;;
50543;SDS011;41176;44.032;20.900;2022-09-13T09:27:22;0.88;;;0.30;;
50543;SDS011;41176;44.032;20.900;2022-09-13T09:29:49;0.98;;;0.45;;
50543;SDS011;41176;44.032;20.900;2022-09-13T09:41:21;1.30;;;0.47;;
50543;SDS011;41176;44.032;20.900;2022-09-13T09:46:34;0.73;;;0.40;;
50543;SDS011;41176;44.032;20.900;2022-09-13T09:49:25;0.47;;;0.20;;
50543;SDS011;41176;44.032;20.900;2022-09-13T09:52:13;1.10;;;0.40;;
50543;SDS011;41176;44.032;20.900;2022-09-13T09:54:41;0.98;;;0.40;;
50543;SDS011;41176;44.032;20.900;2022-09-13T09:57:07;0.80;;;0.30;;
50543;SDS011;41176;44.032;20.900;2022-09-13T09:59:34;0.70;;;0.30;;
50543;SDS011;41176;44.032;20.900;2022-09-13T10:02:02;1.20;;;0.47;;
50543;SDS011;41176;44.032;20.900;2022-09-13T10:04:39;1.45;;;0.50;;
50543;SDS011;41176;44.032;20.900;2022-09-13T10:07:09;0.75;;;0.25;;
50543;SDS011;41176;44.032;20.900;2022-09-13T10:09:55;1.42;;;0.43;;
50543;SDS011;41176;44.032;20.900;2022-09-13T10:12:34;1.00;;;0.40;;
50543;SDS011;41176;44.032;20.900;2022-09-13T10:15:05;0.70;;;0.30;;
50543;SDS011;41176;44.032;20.900;2022-09-13T10:17:39;1.40;;;0.50;;
50543;SDS011;41176;44.032;20.900;2022-09-13T10:22:37;1.00;;;0.43;;
50543;SDS011;41176;44.032;20.900;2022-09-13T10:25:13;0.82;;;0.30;;
50543;SDS011;41176;44.032;20.900;2022-09-13T10:27:46;1.27;;;0.43;;
50543;SDS011;41176;44.032;20.900;2022-09-13T10:30:31;0.67;;;0.40;;
50543;SDS011;41176;44.032;20.900;2022-09-13T10:33:03;0.80;;;0.30;;
50543;SDS011;41176;44.032;20.900;2022-09-13T10:35:30;1.35;;;0.40;;
50543;SDS011;41176;44.032;20.900;2022-09-13T10:37:57;0.75;;;0.30;;
50543;SDS011;41176;44.032;20.900;2022-09-13T10:40:29;1.60;;;0.40;;
50543;SDS011;41176;44.032;20.900;2022-09-13T10:43:03;1.13;;;0.43;;
50543;SDS011;41176;44.032;20.900;2022-09-13T10:45:39;2.08;;;0.45;;
50543;SDS011;41176;44.032;20.900;2022-09-13T10:48:10;0.93;;;0.30;;
50543;SDS011;41176;44.032;20.900;2022-09-13T10:50:39;0.40;;;0.20;;
50543;SDS011;41176;44.032;20.900;2022-09-13T10:56:02;0.60;;;0.20;;
50543;SDS011;41176;44.032;20.900;2022-09-13T10:58:28;0.70;;;0.32;;
50543;SDS011;41176;44.032;20.900;2022-09-13T11:03:46;0.95;;;0.30;;
50543;SDS011;41176;44.032;20.900;2022-09-13T11:06:28;0.75;;;0.30;;
50543;SDS011;41176;44.032;20.900;2022-09-13T11:11:45;0.95;;;0.30;;
50543;SDS011;41176;44.032;20.900;2022-09-13T11:17:17;1.35;;;0.60;;
50543;SDS011;41176;44.032;20.900;2022-09-13T11:23:05;1.10;;;0.45;;
50543;SDS011;41176;44.032;20.900;2022-09-13T11:31:49;0.70;;;0.30;;
50543;SDS011;41176;44.032;20.900;2022-09-13T11:42:45;0.98;;;0.30;;
50543;SDS011;41176;44.032;20.900;2022-09-13T11:45:18;1.20;;;0.40;;
50543;SDS011;41176;44.032;20.900;2022-09-13T11:50:33;0.65;;;0.30;;
50543;SDS011;41176;44.032;20.900;2022-09-13T11:55:57;1.70;;;0.50;;
50543;SDS011;41176;44.032;20.900;2022-09-13T12:01:06;0.60;;;0.30;;
50543;SDS011;41176;44.032;20.900;2022-09-13T12:03:56;0.90;;;0.40;;
50543;SDS011;41176;44.032;20.900;2022-09-13T12:06:33;0.93;;;0.30;;
50543;SDS011;41176;44.032;20.900;2022-09-13T12:09:06;1.70;;;0.60;;
50543;SDS011;41176;44.032;20.900;2022-09-13T12:11:44;1.20;;;0.47;;
50543;SDS011;41176;44.032;20.900;2022-09-13T12:14:18;1.38;;;0.50;;
50543;SDS011;41176;44.032;20.900;2022-09-13T12:16:51;1.27;;;0.55;;
50543;SDS011;41176;44.032;20.900;2022-09-13T12:19:28;2.00;;;0.43;;
50543;SDS011;41176;44.032;20.900;2022-09-13T12:24:33;0.90;;;0.40;;
50543;SDS011;41176;44.032;20.900;2022-09-13T12:29:59;1.38;;;0.68;;
50543;SDS011;41176;44.032;20.900;2022-09-13T12:32:33;1.30;;;0.50;;
50543;SDS011;41176;44.032;20.900;2022-09-13T12:35:06;1.25;;;0.52;;
50543;SDS011;41176;44.032;20.900;2022-09-13T12:54:20;0.50;;;0.30;;
50543;SDS011;41176;44.032;20.900;2022-09-13T12:57:27;1.85;;;0.40;;
50543;SDS011;41176;44.032;20.900;2022-09-13T13:02:42;1.17;;;0.52;;
50543;SDS011;41176;44.032;20.900;2022-09-13T13:05:36;0.82;;;0.38;;
50543;SDS011;41176;44.032;20.900;2022-09-13T13:08:03;1.50;;;0.47;;
50543;SDS011;41176;44.032;20.900;2022-09-13T13:13:33;1.45;;;0.70;;
50543;SDS011;41176;44.032;20.900;2022-09-13T13:16:01;1.30;;;0.60;;
50543;SDS011;41176;44.032;20.900;2022-09-13T13:18:48;1.48;;;0.55;;
50543;SDS011;41176;44.032;20.900;2022-09-13T13:21:33;1.67;;;0.50;;
50543;SDS011;41176;44.032;20.900;2022-09-13T13:29:13;0.93;;;0.35;;
50543;SDS011;41176;44.032;20.900;2022-09-13T13:39:42;0.95;;;0.40;;
50543;SDS011;41176;44.032;20.900;2022-09-13T13:49:51;1.50;;;0.50;;
50543;SDS011;41176;44.032;20.900;2022-09-13T13:52:35;2.42;;;0.50;;
50543;SDS011;41176;44.032;20.900;2022-09-13T13:55:22;1.33;;;0.50;;
50543;SDS011;41176;44.032;20.900;2022-09-13T13:57:51;0.95;;;0.40;;
50543;SDS011;41176;44.032;20.900;2022-09-13T14:00:27;1.35;;;0.50;;
50543;SDS011;41176;44.032;20.900;2022-09-13T14:05:36;1.10;;;0.52;;
50543;SDS011;41176;44.032;20.900;2022-09-13T14:08:30;1.30;;;0.70;;
50543;SDS011;41176;44.032;20.900;2022-09-13T14:14:04;2.13;;;1.05;;
50543;SDS011;41176;44.032;20.900;2022-09-13T14:20:02;1.52;;;0.65;;
50543;SDS011;41176;44.032;20.900;2022-09-13T14:22:33;1.42;;;0.60;;
50543;SDS011;41176;44.032;20.900;2022-09-13T14:27:44;1.40;;;0.47;;
50543;SDS011;41176;44.032;20.900;2022-09-13T14:32:51;4.45;;;2.30;;
50543;SDS011;41176;44.032;20.900;2022-09-13T14:37:55;2.28;;;0.77;;
50543;SDS011;41176;44.032;20.900;2022-09-13T14:40:45;2.58;;;0.68;;
50543;SDS011;41176;44.032;20.900;2022-09-13T14:43:14;1.63;;;0.70;;
50543;SDS011;41176;44.032;20.900;2022-09-13T14:45:41;2.10;;;0.80;;
50543;SDS011;41176;44.032;20.900;2022-09-13T14:48:11;1.25;;;0.50;;
50543;SDS011;41176;44.032;20.900;2022-09-13T14:50:53;3.17;;;1.63;;
50543;SDS011;41176;44.032;20.900;2022-09-13T14:53:24;8.45;;;3.95;;
50543;SDS011;41176;44.032;20.900;2022-09-13T14:56:03;9.88;;;3.05;;
50543;SDS011;41176;44.032;20.900;2022-09-13T14:58:38;2.90;;;1.02;;
50543;SDS011;41176;44.032;20.900;2022-09-13T15:01:07;2.22;;;1.10;;
50543;SDS011;41176;44.032;20.900;2022-09-13T15:03:39;1.65;;;0.65;;
50543;SDS011;41176;44.032;20.900;2022-09-13T15:06:18;2.03;;;0.93;;
50543;SDS011;41176;44.032;20.900;2022-09-13T15:08:50;1.45;;;0.65;;
50543;SDS011;41176;44.032;20.900;2022-09-13T15:11:27;13.38;;;5.05;;
50543;SDS011;41176;44.032;20.900;2022-09-13T15:14:40;2.83;;;1.25;;
50543;SDS011;41176;44.032;20.900;2022-09-13T15:19:37;2.22;;;0.90;;
50543;SDS011;41176;44.032;20.900;2022-09-13T15:22:11;1.20;;;0.50;;
50543;SDS011;41176;44.032;20.900;2022-09-13T15:24:56;1.65;;;0.68;;
50543;SDS011;41176;44.032;20.900;2022-09-13T15:27:25;1.23;;;0.60;;
50543;SDS011;41176;44.032;20.900;2022-09-13T15:29:57;1.60;;;0.50;;
50543;SDS011;41176;44.032;20.900;2022-09-13T15:34:58;3.92;;;1.50;;
50543;SDS011;41176;44.032;20.900;2022-09-13T15:37:29;2.85;;;1.40;;
50543;SDS011;41176;44.032;20.900;2022-09-13T15:40:06;1.45;;;0.70;;
50543;SDS011;41176;44.032;20.900;2022-09-13T15:42:38;2.00;;;1.23;;
50543;SDS011;41176;44.032;20.900;2022-09-13T15:45:04;1.77;;;0.85;;
50543;SDS011;41176;44.032;20.900;2022-09-13T15:47:30;7.50;;;3.75;;
50543;SDS011;41176;44.032;20.900;2022-09-13T15:49:55;5.07;;;2.65;;
50543;SDS011;41176;44.032;20.900;2022-09-13T15:52:22;3.03;;;1.42;;
50543;SDS011;41176;44.032;20.900;2022-09-13T15:54:48;2.08;;;0.98;;
50543;SDS011;41176;44.032;20.900;2022-09-13T15:57:20;2.45;;;1.00;;
50543;SDS011;41176;44.032;20.900;2022-09-13T15:59:48;2.65;;;1.30;;
50543;SDS011;41176;44.032;20.900;2022-09-13T16:02:32;3.42;;;1.90;;
50543;SDS011;41176;44.032;20.900;2022-09-13T16:05:00;3.38;;;1.77;;
50543;SDS011;41176;44.032;20.900;2022-09-13T16:07:26;2.45;;;1.33;;
50543;SDS011;41176;44.032;20.900;2022-09-13T16:09:52;3.65;;;1.52;;
50543;SDS011;41176;44.032;20.900;2022-09-13T16:12:18;2.28;;;1.05;;
50543;SDS011;41176;44.032;20.900;2022-09-13T16:14:47;2.55;;;0.98;;
50543;SDS011;41176;44.032;20.900;2022-09-13T16:17:15;2.55;;;1.00;;
50543;SDS011;41176;44.032;20.900;2022-09-13T16:19:51;1.95;;;0.70;;
50543;SDS011;41176;44.032;20.900;2022-09-13T16:22:18;2.25;;;0.75;;
50543;SDS011;41176;44.032;20.900;2022-09-13T16:24:45;1.42;;;0.75;;
50543;SDS011;41176;44.032;20.900;2022-09-13T16:27:12;1.50;;;0.68;;
50543;SDS011;41176;44.032;20.900;2022-09-13T16:29:39;1.35;;;0.75;;
50543;SDS011;41176;44.032;20.900;2022-09-13T16:32:06;2.55;;;0.88;;
50543;SDS011;41176;44.032;20.900;2022-09-13T16:34:32;2.80;;;1.05;;
50543;SDS011;41176;44.032;20.900;2022-09-13T16:36:58;1.77;;;0.85;;
50543;SDS011;41176;44.032;20.900;2022-09-13T16:39:26;1.70;;;0.95;;
50543;SDS011;41176;44.032;20.900;2022-09-13T16:41:52;1.50;;;0.80;;
50543;SDS011;41176;44.032;20.900;2022-09-13T16:44:18;1.67;;;0.90;;
50543;SDS011;41176;44.032;20.900;2022-09-13T16:46:45;2.50;;;0.95;;
50543;SDS011;41176;44.032;20.900;2022-09-13T16:49:12;1.98;;;0.98;;
50543;SDS011;41176;44.032;20.900;2022-09-13T16:51:38;2.08;;;0.80;;
50543;SDS011;41176;44.032;20.900;2022-09-13T16:54:04;3.95;;;1.70;;
50543;SDS011;41176;44.032;20.900;2022-09-13T16:56:31;7.70;;;3.22;;
50543;SDS011;41176;44.032;20.900;2022-09-13T16:58:57;9.65;;;3.75;;
50543;SDS011;41176;44.032;20.900;2022-09-13T17:01:24;9.35;;;4.53;;
50543;SDS011;41176;44.032;20.900;2022-09-13T17:03:56;7.82;;;3.17;;
50543;SDS011;41176;44.032;20.900;2022-09-13T17:06:23;4.25;;;2.03;;
50543;SDS011;41176;44.032;20.900;2022-09-13T17:08:55;2.55;;;1.08;;
50543;SDS011;41176;44.032;20.900;2022-09-13T17:11:26;6.55;;;2.55;;
50543;SDS011;41176;44.032;20.900;2022-09-13T17:13:55;13.00;;;5.40;;
50543;SDS011;41176;44.032;20.900;2022-09-13T17:16:31;9.13;;;4.30;;
50543;SDS011;41176;44.032;20.900;2022-09-13T17:19:02;10.25;;;4.43;;
50543;SDS011;41176;44.032;20.900;2022-09-13T17:21:30;3.55;;;2.03;;
50543;SDS011;41176;44.032;20.900;2022-09-13T17:23:58;4.38;;;2.38;;
50543;SDS011;41176;44.032;20.900;2022-09-13T17:26:24;3.45;;;1.85;;
50543;SDS011;41176;44.032;20.900;2022-09-13T17:28:52;4.15;;;2.25;;
50543;SDS011;41176;44.032;20.900;2022-09-13T17:31:18;5.22;;;2.05;;
50543;SDS011;41176;44.032;20.900;2022-09-13T17:33:45;3.55;;;1.70;;
50543;SDS011;41176;44.032;20.900;2022-09-13T17:36:14;2.72;;;1.45;;
50543;SDS011;41176;44.032;20.900;2022-09-13T17:38:40;3.28;;;1.35;;
50543;SDS011;41176;44.032;20.900;2022-09-13T17:41:16;2.65;;;1.05;;
50543;SDS011;41176;44.032;20.900;2022-09-13T17:43:44;2.67;;;1.05;;
50543;SDS011;41176;44.032;20.900;2022-09-13T17:46:12;1.98;;;1.10;;
50543;SDS011;41176;44.032;20.900;2022-09-13T17:48:40;2.75;;;1.27;;
50543;SDS011;41176;44.032;20.900;2022-09-13T17:51:07;4.18;;;1.35;;
50543;SDS011;41176;44.032;20.900;2022-09-13T17:53:39;2.63;;;1.50;;
50543;SDS011;41176;44.032;20.900;2022-09-13T17:56:10;4.70;;;1.52;;
50543;SDS011;41176;44.032;20.900;2022-09-13T17:58:37;2.63;;;1.50;;
50543;SDS011;41176;44.032;20.900;2022-09-13T18:01:04;1.88;;;0.90;;
50543;SDS011;41176;44.032;20.900;2022-09-13T18:06:45;3.13;;;1.58;;
50543;SDS011;41176;44.032;20.900;2022-09-13T18:09:12;3.00;;;1.13;;
50543;SDS011;41176;44.032;20.900;2022-09-13T18:11:39;3.42;;;1.30;;
50543;SDS011;41176;44.032;20.900;2022-09-13T18:14:06;2.38;;;1.13;;
50543;SDS011;41176;44.032;20.900;2022-09-13T18:16:35;3.80;;;1.45;;
50543;SDS011;41176;44.032;20.900;2022-09-13T18:19:01;3.22;;;1.40;;
50543;SDS011;41176;44.032;20.900;2022-09-13T18:21:27;2.50;;;1.40;;
50543;SDS011;41176;44.032;20.900;2022-09-13T18:24:08;5.05;;;1.60;;
50543;SDS011;41176;44.032;20.900;2022-09-13T18:26:34;2.92;;;1.50;;
50543;SDS011;41176;44.032;20.900;2022-09-13T18:29:02;3.50;;;1.52;;
50543;SDS011;41176;44.032;20.900;2022-09-13T18:31:30;5.25;;;1.63;;
50543;SDS011;41176;44.032;20.900;2022-09-13T18:34:04;2.92;;;1.63;;
50543;SDS011;41176;44.032;20.900;2022-09-13T18:36:32;2.92;;;1.48;;
50543;SDS011;41176;44.032;20.900;2022-09-13T18:38:59;2.97;;;1.85;;
50543;SDS011;41176;44.032;20.900;2022-09-13T18:41:36;3.28;;;1.17;;
50543;SDS011;41176;44.032;20.900;2022-09-13T18:44:05;1.58;;;1.02;;
50543;SDS011;41176;44.032;20.900;2022-09-13T18:46:31;2.10;;;1.40;;
50543;SDS011;41176;44.032;20.900;2022-09-13T18:49:01;3.05;;;1.10;;
50543;SDS011;41176;44.032;20.900;2022-09-13T18:51:31;2.10;;;1.00;;
50543;SDS011;41176;44.032;20.900;2022-09-13T18:54:03;2.50;;;1.20;;